sensor_id;sensor_type;location;lat;lon;timestamp;P1;durP1;ratioP1;P2;durP2;ratioP2
11453;SDS011;5783;55.174;61.310;2023-04-15T00:00:12;2.90;;;2.50;;
11453;SDS011;5783;55.174;61.310;2023-04-15T00:02:41;2.83;;;2.60;;
11453;SDS011;5783;55.174;61.310;2023-04-15T00:05:10;2.67;;;2.47;;
11453;SDS011;5783;55.174;61.310;2023-04-15T00:07:39;2.90;;;2.50;;
11453;SDS011;5783;55.174;61.310;2023-04-15T00:10:09;2.83;;;2.40;;
11453;SDS011;5783;55.174;61.310;2023-04-15T00:12:39;2.80;;;2.43;;
11453;SDS011;5783;55.174;61.310;2023-04-15T00:15:09;2.50;;;2.30;;
11453;SDS011;5783;55.174;61.310;2023-04-15T00:17:38;2.40;;;2.20;;
11453;SDS011;5783;55.174;61.310;2023-04-15T00:20:08;2.57;;;2.37;;
11453;SDS011;5783;55.174;61.310;2023-04-15T00:22:37;2.37;;;2.17;;
11453;SDS011;5783;55.174;61.310;2023-04-15T00:25:07;3.33;;;2.30;;
11453;SDS011;5783;55.174;61.310;2023-04-15T00:27:36;2.87;;;2.20;;
11453;SDS011;5783;55.174;61.310;2023-04-15T00:30:06;2.10;;;1.90;;
11453;SDS011;5783;55.174;61.310;2023-04-15T00:32:36;2.23;;;2.03;;
11453;SDS011;5783;55.174;61.310;2023-04-15T00:35:07;2.20;;;2.00;;
11453;SDS011;5783;55.174;61.310;2023-04-15T00:37:37;2.47;;;1.83;;
11453;SDS011;5783;55.174;61.310;2023-04-15T00:40:06;2.17;;;1.97;;
11453;SDS011;5783;55.174;61.310;2023-04-15T00:42:38;1.93;;;1.70;;
11453;SDS011;5783;55.174;61.310;2023-04-15T00:45:08;1.90;;;1.80;;
11453;SDS011;5783;55.174;61.310;2023-04-15T00:47:38;1.70;;;1.60;;
11453;SDS011;5783;55.174;61.310;2023-04-15T00:50:10;2.97;;;1.83;;
11453;SDS011;5783;55.174;61.310;2023-04-15T00:52:40;2.60;;;1.70;;
11453;SDS011;5783;55.174;61.310;2023-04-15T00:55:09;1.70;;;1.60;;
11453;SDS011;5783;55.174;61.310;2023-04-15T00:57:39;2.60;;;1.60;;
11453;SDS011;5783;55.174;61.310;2023-04-15T01:00:09;1.57;;;1.43;;
11453;SDS011;5783;55.174;61.310;2023-04-15T01:02:38;1.60;;;1.50;;
11453;SDS011;5783;55.174;61.310;2023-04-15T01:05:08;2.03;;;1.83;;
11453;SDS011;5783;55.174;61.310;2023-04-15T01:07:37;2.20;;;1.67;;
11453;SDS011;5783;55.174;61.310;2023-04-15T01:10:06;3.00;;;1.60;;
11453;SDS011;5783;55.174;61.310;2023-04-15T01:12:36;2.20;;;1.70;;
11453;SDS011;5783;55.174;61.310;2023-04-15T01:15:05;1.93;;;1.37;;
11453;SDS011;5783;55.174;61.310;2023-04-15T01:17:35;1.87;;;1.70;;
11453;SDS011;5783;55.174;61.310;2023-04-15T01:20:06;1.60;;;1.50;;
11453;SDS011;5783;55.174;61.310;2023-04-15T01:22:36;1.63;;;1.40;;
11453;SDS011;5783;55.174;61.310;2023-04-15T01:28:15;1.80;;;1.60;;
11453;SDS011;5783;55.174;61.310;2023-04-15T01:30:45;1.60;;;1.50;;
11453;SDS011;5783;55.174;61.310;2023-04-15T01:33:14;1.63;;;1.50;;
11453;SDS011;5783;55.174;61.310;2023-04-15T01:36:03;2.37;;;1.70;;
11453;SDS011;5783;55.174;61.310;2023-04-15T01:38:35;2.20;;;1.73;;
11453;SDS011;5783;55.174;61.310;2023-04-15T01:41:04;3.33;;;1.70;;
11453;SDS011;5783;55.174;61.310;2023-04-15T01:43:35;1.77;;;1.53;;
11453;SDS011;5783;55.174;61.310;2023-04-15T01:46:05;2.00;;;1.70;;
11453;SDS011;5783;55.174;61.310;2023-04-15T01:48:36;2.23;;;1.70;;
11453;SDS011;5783;55.174;61.310;2023-04-15T01:51:06;2.03;;;1.70;;
11453;SDS011;5783;55.174;61.310;2023-04-15T01:53:37;1.97;;;1.77;;
11453;SDS011;5783;55.174;61.310;2023-04-15T01:56:08;2.77;;;2.00;;
11453;SDS011;5783;55.174;61.310;2023-04-15T01:58:38;2.40;;;1.60;;
11453;SDS011;5783;55.174;61.310;2023-04-15T02:01:08;2.00;;;1.67;;
11453;SDS011;5783;55.174;61.310;2023-04-15T02:03:39;1.63;;;1.53;;
11453;SDS011;5783;55.174;61.310;2023-04-15T02:06:10;2.50;;;1.70;;
11453;SDS011;5783;55.174;61.310;2023-04-15T02:08:40;2.47;;;1.80;;
11453;SDS011;5783;55.174;61.310;2023-04-15T02:11:11;2.60;;;1.80;;
11453;SDS011;5783;55.174;61.310;2023-04-15T02:13:41;4.47;;;2.00;;
11453;SDS011;5783;55.174;61.310;2023-04-15T02:19:01;2.53;;;2.10;;
11453;SDS011;5783;55.174;61.310;2023-04-15T02:21:32;2.97;;;2.13;;
11453;SDS011;5783;55.174;61.310;2023-04-15T02:24:03;3.77;;;2.13;;
11453;SDS011;5783;55.174;61.310;2023-04-15T02:26:33;3.13;;;2.20;;
11453;SDS011;5783;55.174;61.310;2023-04-15T02:29:04;2.57;;;2.00;;
11453;SDS011;5783;55.174;61.310;2023-04-15T02:31:34;3.43;;;2.10;;
11453;SDS011;5783;55.174;61.310;2023-04-15T02:34:06;4.00;;;2.10;;
11453;SDS011;5783;55.174;61.310;2023-04-15T02:36:38;2.93;;;2.30;;
11453;SDS011;5783;55.174;61.310;2023-04-15T02:39:08;3.30;;;2.10;;
11453;SDS011;5783;55.174;61.310;2023-04-15T02:41:41;5.47;;;2.40;;
11453;SDS011;5783;55.174;61.310;2023-04-15T02:44:13;3.10;;;2.13;;
11453;SDS011;5783;55.174;61.310;2023-04-15T02:47:03;4.50;;;2.30;;
11453;SDS011;5783;55.174;61.310;2023-04-15T02:49:33;3.10;;;2.10;;
11453;SDS011;5783;55.174;61.310;2023-04-15T02:52:05;2.93;;;2.20;;
11453;SDS011;5783;55.174;61.310;2023-04-15T02:54:35;3.20;;;2.23;;
11453;SDS011;5783;55.174;61.310;2023-04-15T02:57:06;2.60;;;1.90;;
11453;SDS011;5783;55.174;61.310;2023-04-15T02:59:37;4.03;;;2.27;;
11453;SDS011;5783;55.174;61.310;2023-04-15T03:02:08;3.33;;;2.10;;
11453;SDS011;5783;55.174;61.310;2023-04-15T03:04:38;2.93;;;1.90;;
11453;SDS011;5783;55.174;61.310;2023-04-15T03:07:08;4.97;;;2.20;;
11453;SDS011;5783;55.174;61.310;2023-04-15T03:09:39;3.13;;;1.90;;
11453;SDS011;5783;55.174;61.310;2023-04-15T03:12:09;5.13;;;2.30;;
11453;SDS011;5783;55.174;61.310;2023-04-15T03:14:40;3.30;;;2.20;;
11453;SDS011;5783;55.174;61.310;2023-04-15T03:17:10;3.87;;;2.17;;
11453;SDS011;5783;55.174;61.310;2023-04-15T03:19:41;3.53;;;2.00;;
11453;SDS011;5783;55.174;61.310;2023-04-15T03:22:12;3.20;;;2.03;;
11453;SDS011;5783;55.174;61.310;2023-04-15T03:24:42;3.50;;;2.03;;
11453;SDS011;5783;55.174;61.310;2023-04-15T03:27:12;2.83;;;2.20;;
11453;SDS011;5783;55.174;61.310;2023-04-15T03:29:43;3.13;;;2.30;;
11453;SDS011;5783;55.174;61.310;2023-04-15T03:32:13;2.70;;;2.27;;
11453;SDS011;5783;55.174;61.310;2023-04-15T03:34:43;3.20;;;1.93;;
11453;SDS011;5783;55.174;61.310;2023-04-15T03:37:14;3.30;;;2.10;;
11453;SDS011;5783;55.174;61.310;2023-04-15T03:39:44;2.97;;;1.97;;
11453;SDS011;5783;55.174;61.310;2023-04-15T03:42:15;3.40;;;2.20;;
11453;SDS011;5783;55.174;61.310;2023-04-15T03:44:45;3.23;;;2.03;;
11453;SDS011;5783;55.174;61.310;2023-04-15T03:47:16;3.00;;;2.10;;
11453;SDS011;5783;55.174;61.310;2023-04-15T03:49:46;3.43;;;2.00;;
11453;SDS011;5783;55.174;61.310;2023-04-15T03:52:16;3.03;;;2.03;;
11453;SDS011;5783;55.174;61.310;2023-04-15T03:54:47;3.87;;;2.00;;
11453;SDS011;5783;55.174;61.310;2023-04-15T03:57:18;3.33;;;2.00;;
11453;SDS011;5783;55.174;61.310;2023-04-15T03:59:48;3.90;;;2.13;;
11453;SDS011;5783;55.174;61.310;2023-04-15T04:02:18;3.27;;;1.90;;
11453;SDS011;5783;55.174;61.310;2023-04-15T04:04:49;4.77;;;1.90;;
11453;SDS011;5783;55.174;61.310;2023-04-15T04:07:19;2.87;;;1.90;;
11453;SDS011;5783;55.174;61.310;2023-04-15T04:09:51;3.57;;;2.00;;
11453;SDS011;5783;55.174;61.310;2023-04-15T04:12:23;3.73;;;1.90;;
11453;SDS011;5783;55.174;61.310;2023-04-15T04:14:54;2.43;;;1.60;;
11453;SDS011;5783;55.174;61.310;2023-04-15T04:17:24;3.50;;;1.93;;
11453;SDS011;5783;55.174;61.310;2023-04-15T04:19:54;3.13;;;1.70;;
11453;SDS011;5783;55.174;61.310;2023-04-15T04:22:25;2.20;;;1.70;;
11453;SDS011;5783;55.174;61.310;2023-04-15T04:24:55;1.93;;;1.50;;
11453;SDS011;5783;55.174;61.310;2023-04-15T04:27:27;3.53;;;1.90;;
11453;SDS011;5783;55.174;61.310;2023-04-15T04:29:57;2.30;;;1.70;;
11453;SDS011;5783;55.174;61.310;2023-04-15T04:32:28;2.93;;;1.53;;
11453;SDS011;5783;55.174;61.310;2023-04-15T04:34:58;3.20;;;1.70;;
11453;SDS011;5783;55.174;61.310;2023-04-15T04:37:28;3.60;;;1.70;;
11453;SDS011;5783;55.174;61.310;2023-04-15T04:39:59;3.27;;;1.70;;
11453;SDS011;5783;55.174;61.310;2023-04-15T04:42:29;5.27;;;1.77;;
11453;SDS011;5783;55.174;61.310;2023-04-15T04:44:59;3.20;;;1.70;;
11453;SDS011;5783;55.174;61.310;2023-04-15T04:47:31;6.50;;;1.80;;
11453;SDS011;5783;55.174;61.310;2023-04-15T04:50:01;1.93;;;1.70;;
11453;SDS011;5783;55.174;61.310;2023-04-15T04:52:32;4.43;;;1.80;;
11453;SDS011;5783;55.174;61.310;2023-04-15T04:55:03;3.03;;;1.80;;
11453;SDS011;5783;55.174;61.310;2023-04-15T04:57:34;5.17;;;2.00;;
11453;SDS011;5783;55.174;61.310;2023-04-15T05:00:05;2.93;;;1.70;;
11453;SDS011;5783;55.174;61.310;2023-04-15T05:02:37;3.23;;;1.73;;
11453;SDS011;5783;55.174;61.310;2023-04-15T05:05:09;2.70;;;1.87;;
11453;SDS011;5783;55.174;61.310;2023-04-15T05:07:40;6.10;;;2.57;;
11453;SDS011;5783;55.174;61.310;2023-04-15T05:10:10;10.00;;;2.50;;
11453;SDS011;5783;55.174;61.310;2023-04-15T05:12:42;7.70;;;2.77;;
11453;SDS011;5783;55.174;61.310;2023-04-15T05:15:12;11.20;;;3.07;;
11453;SDS011;5783;55.174;61.310;2023-04-15T05:17:43;12.57;;;3.47;;
11453;SDS011;5783;55.174;61.310;2023-04-15T05:20:13;11.83;;;5.27;;
11453;SDS011;5783;55.174;61.310;2023-04-15T05:22:43;13.83;;;4.70;;
11453;SDS011;5783;55.174;61.310;2023-04-15T05:25:14;10.30;;;5.70;;
11453;SDS011;5783;55.174;61.310;2023-04-15T05:27:44;13.13;;;6.33;;
11453;SDS011;5783;55.174;61.310;2023-04-15T05:30:15;14.37;;;6.77;;
11453;SDS011;5783;55.174;61.310;2023-04-15T05:32:45;12.40;;;7.57;;
11453;SDS011;5783;55.174;61.310;2023-04-15T05:35:16;10.57;;;6.50;;
11453;SDS011;5783;55.174;61.310;2023-04-15T05:37:47;15.03;;;7.40;;
11453;SDS011;5783;55.174;61.310;2023-04-15T05:40:17;15.60;;;6.73;;
11453;SDS011;5783;55.174;61.310;2023-04-15T05:42:47;18.20;;;8.70;;
11453;SDS011;5783;55.174;61.310;2023-04-15T05:45:18;14.90;;;7.47;;
11453;SDS011;5783;55.174;61.310;2023-04-15T05:47:48;19.70;;;7.53;;
11453;SDS011;5783;55.174;61.310;2023-04-15T05:50:19;19.30;;;7.60;;
11453;SDS011;5783;55.174;61.310;2023-04-15T05:52:50;12.70;;;6.67;;
11453;SDS011;5783;55.174;61.310;2023-04-15T05:55:20;18.00;;;7.50;;
11453;SDS011;5783;55.174;61.310;2023-04-15T05:57:51;19.50;;;8.80;;
11453;SDS011;5783;55.174;61.310;2023-04-15T06:00:22;14.90;;;8.73;;
11453;SDS011;5783;55.174;61.310;2023-04-15T06:02:52;18.63;;;8.83;;
11453;SDS011;5783;55.174;61.310;2023-04-15T06:05:24;15.87;;;8.80;;
11453;SDS011;5783;55.174;61.310;2023-04-15T06:07:55;18.80;;;9.17;;
11453;SDS011;5783;55.174;61.310;2023-04-15T06:10:26;17.70;;;8.50;;
11453;SDS011;5783;55.174;61.310;2023-04-15T06:12:58;13.63;;;7.27;;
11453;SDS011;5783;55.174;61.310;2023-04-15T06:15:29;15.00;;;6.37;;
11453;SDS011;5783;55.174;61.310;2023-04-15T06:17:59;11.93;;;6.43;;
11453;SDS011;5783;55.174;61.310;2023-04-15T06:20:30;10.87;;;6.33;;
11453;SDS011;5783;55.174;61.310;2023-04-15T06:23:01;11.73;;;6.43;;
11453;SDS011;5783;55.174;61.310;2023-04-15T06:25:32;15.07;;;6.97;;
11453;SDS011;5783;55.174;61.310;2023-04-15T06:28:02;13.13;;;7.13;;
11453;SDS011;5783;55.174;61.310;2023-04-15T06:30:34;22.07;;;9.93;;
11453;SDS011;5783;55.174;61.310;2023-04-15T06:33:05;22.47;;;10.43;;
11453;SDS011;5783;55.174;61.310;2023-04-15T06:35:35;20.90;;;9.93;;
11453;SDS011;5783;55.174;61.310;2023-04-15T06:38:06;18.53;;;9.40;;
11453;SDS011;5783;55.174;61.310;2023-04-15T06:40:36;23.50;;;11.63;;
11453;SDS011;5783;55.174;61.310;2023-04-15T06:43:08;21.90;;;9.43;;
11453;SDS011;5783;55.174;61.310;2023-04-15T06:45:38;22.20;;;9.83;;
11453;SDS011;5783;55.174;61.310;2023-04-15T06:48:09;22.57;;;11.17;;
11453;SDS011;5783;55.174;61.310;2023-04-15T06:50:40;22.33;;;10.83;;
11453;SDS011;5783;55.174;61.310;2023-04-15T06:53:10;24.23;;;10.23;;
11453;SDS011;5783;55.174;61.310;2023-04-15T06:55:41;19.53;;;9.37;;
11453;SDS011;5783;55.174;61.310;2023-04-15T06:58:12;19.30;;;9.10;;
11453;SDS011;5783;55.174;61.310;2023-04-15T07:00:43;23.63;;;9.33;;
11453;SDS011;5783;55.174;61.310;2023-04-15T07:03:14;16.97;;;7.80;;
11453;SDS011;5783;55.174;61.310;2023-04-15T07:05:44;19.67;;;8.00;;
11453;SDS011;5783;55.174;61.310;2023-04-15T07:08:14;18.77;;;8.50;;
11453;SDS011;5783;55.174;61.310;2023-04-15T07:10:45;14.63;;;8.83;;
11453;SDS011;5783;55.174;61.310;2023-04-15T07:13:16;18.67;;;9.00;;
11453;SDS011;5783;55.174;61.310;2023-04-15T07:15:47;19.00;;;9.17;;
11453;SDS011;5783;55.174;61.310;2023-04-15T07:18:17;15.53;;;9.73;;
11453;SDS011;5783;55.174;61.310;2023-04-15T07:20:47;18.20;;;9.33;;
11453;SDS011;5783;55.174;61.310;2023-04-15T07:23:18;19.77;;;8.40;;
11453;SDS011;5783;55.174;61.310;2023-04-15T07:25:48;16.60;;;7.90;;
11453;SDS011;5783;55.174;61.310;2023-04-15T07:28:19;14.93;;;7.17;;
11453;SDS011;5783;55.174;61.310;2023-04-15T07:30:49;12.30;;;5.80;;
11453;SDS011;5783;55.174;61.310;2023-04-15T07:33:19;14.60;;;5.80;;
11453;SDS011;5783;55.174;61.310;2023-04-15T07:35:50;14.30;;;5.70;;
11453;SDS011;5783;55.174;61.310;2023-04-15T07:38:20;13.73;;;5.07;;
11453;SDS011;5783;55.174;61.310;2023-04-15T07:40:51;10.07;;;5.10;;
11453;SDS011;5783;55.174;61.310;2023-04-15T07:43:21;17.33;;;6.13;;
11453;SDS011;5783;55.174;61.310;2023-04-15T07:45:52;13.83;;;5.40;;
11453;SDS011;5783;55.174;61.310;2023-04-15T07:48:22;11.43;;;5.40;;
11453;SDS011;5783;55.174;61.310;2023-04-15T07:50:55;7.83;;;4.63;;
11453;SDS011;5783;55.174;61.310;2023-04-15T07:53:25;9.40;;;5.10;;
11453;SDS011;5783;55.174;61.310;2023-04-15T07:55:56;9.60;;;5.10;;
11453;SDS011;5783;55.174;61.310;2023-04-15T07:58:26;11.53;;;5.20;;
11453;SDS011;5783;55.174;61.310;2023-04-15T08:00:56;8.83;;;4.87;;
11453;SDS011;5783;55.174;61.310;2023-04-15T08:03:28;8.80;;;4.80;;
11453;SDS011;5783;55.174;61.310;2023-04-15T08:05:58;8.93;;;4.90;;
11453;SDS011;5783;55.174;61.310;2023-04-15T08:08:28;7.83;;;4.43;;
11453;SDS011;5783;55.174;61.310;2023-04-15T08:10:59;7.17;;;4.30;;
11453;SDS011;5783;55.174;61.310;2023-04-15T08:13:29;9.17;;;4.20;;
11453;SDS011;5783;55.174;61.310;2023-04-15T08:18:54;9.03;;;4.47;;
11453;SDS011;5783;55.174;61.310;2023-04-15T08:21:25;9.40;;;4.37;;
11453;SDS011;5783;55.174;61.310;2023-04-15T08:23:55;9.37;;;4.33;;
11453;SDS011;5783;55.174;61.310;2023-04-15T08:26:26;8.67;;;4.13;;
11453;SDS011;5783;55.174;61.310;2023-04-15T08:28:57;5.60;;;3.53;;
11453;SDS011;5783;55.174;61.310;2023-04-15T08:31:27;6.50;;;3.57;;
11453;SDS011;5783;55.174;61.310;2023-04-15T08:33:59;7.53;;;4.00;;
11453;SDS011;5783;55.174;61.310;2023-04-15T08:36:29;6.17;;;3.80;;
11453;SDS011;5783;55.174;61.310;2023-04-15T08:39:00;6.77;;;3.80;;
11453;SDS011;5783;55.174;61.310;2023-04-15T08:44:21;7.90;;;3.70;;
11453;SDS011;5783;55.174;61.310;2023-04-15T08:46:53;7.37;;;3.60;;
11453;SDS011;5783;55.174;61.310;2023-04-15T08:49:25;6.30;;;3.60;;
11453;SDS011;5783;55.174;61.310;2023-04-15T08:51:57;6.70;;;3.80;;
11453;SDS011;5783;55.174;61.310;2023-04-15T08:54:29;6.47;;;3.50;;
11453;SDS011;5783;55.174;61.310;2023-04-15T08:56:59;10.67;;;4.07;;
11453;SDS011;5783;55.174;61.310;2023-04-15T08:59:30;9.73;;;3.37;;
11453;SDS011;5783;55.174;61.310;2023-04-15T09:02:01;9.30;;;4.03;;
11453;SDS011;5783;55.174;61.310;2023-04-15T09:04:32;9.93;;;3.60;;
11453;SDS011;5783;55.174;61.310;2023-04-15T09:07:02;14.03;;;4.00;;
11453;SDS011;5783;55.174;61.310;2023-04-15T09:09:33;13.60;;;4.70;;
11453;SDS011;5783;55.174;61.310;2023-04-15T09:12:05;9.10;;;3.90;;
11453;SDS011;5783;55.174;61.310;2023-04-15T09:14:38;10.93;;;3.57;;
11453;SDS011;5783;55.174;61.310;2023-04-15T09:17:09;10.80;;;4.10;;
11453;SDS011;5783;55.174;61.310;2023-04-15T09:19:39;14.67;;;4.10;;
11453;SDS011;5783;55.174;61.310;2023-04-15T09:22:10;11.63;;;3.73;;
11453;SDS011;5783;55.174;61.310;2023-04-15T09:24:41;10.37;;;4.00;;
11453;SDS011;5783;55.174;61.310;2023-04-15T09:27:12;10.40;;;3.70;;
11453;SDS011;5783;55.174;61.310;2023-04-15T09:29:47;9.93;;;4.03;;
11453;SDS011;5783;55.174;61.310;2023-04-15T09:32:18;6.67;;;3.43;;
11453;SDS011;5783;55.174;61.310;2023-04-15T09:34:49;10.23;;;3.53;;
11453;SDS011;5783;55.174;61.310;2023-04-15T09:37:33;6.40;;;3.17;;
11453;SDS011;5783;55.174;61.310;2023-04-15T09:39:53;11.83;;;4.10;;
11453;SDS011;5783;55.174;61.310;2023-04-15T09:42:23;7.47;;;3.70;;
11453;SDS011;5783;55.174;61.310;2023-04-15T09:44:54;6.50;;;3.73;;
11453;SDS011;5783;55.174;61.310;2023-04-15T09:50:16;9.47;;;3.47;;
11453;SDS011;5783;55.174;61.310;2023-04-15T09:52:47;9.70;;;3.60;;
11453;SDS011;5783;55.174;61.310;2023-04-15T09:55:17;9.73;;;3.53;;
11453;SDS011;5783;55.174;61.310;2023-04-15T09:57:47;6.17;;;3.43;;
11453;SDS011;5783;55.174;61.310;2023-04-15T10:00:18;10.67;;;3.70;;
11453;SDS011;5783;55.174;61.310;2023-04-15T10:02:48;5.93;;;3.33;;
11453;SDS011;5783;55.174;61.310;2023-04-15T10:05:20;7.47;;;3.40;;
11453;SDS011;5783;55.174;61.310;2023-04-15T10:07:50;5.37;;;3.17;;
11453;SDS011;5783;55.174;61.310;2023-04-15T10:10:21;7.77;;;3.53;;
11453;SDS011;5783;55.174;61.310;2023-04-15T10:12:52;8.47;;;3.37;;
11453;SDS011;5783;55.174;61.310;2023-04-15T10:15:23;5.40;;;3.23;;
11453;SDS011;5783;55.174;61.310;2023-04-15T10:17:56;8.60;;;3.60;;
11453;SDS011;5783;55.174;61.310;2023-04-15T10:20:28;6.37;;;3.20;;
11453;SDS011;5783;55.174;61.310;2023-04-15T10:22:59;5.30;;;3.50;;
11453;SDS011;5783;55.174;61.310;2023-04-15T10:25:30;7.67;;;3.10;;
11453;SDS011;5783;55.174;61.310;2023-04-15T10:28:02;7.63;;;3.87;;
11453;SDS011;5783;55.174;61.310;2023-04-15T10:30:35;8.27;;;3.80;;
11453;SDS011;5783;55.174;61.310;2023-04-15T10:33:06;10.27;;;4.27;;
11453;SDS011;5783;55.174;61.310;2023-04-15T10:35:39;10.13;;;5.87;;
11453;SDS011;5783;55.174;61.310;2023-04-15T10:44:14;11.83;;;7.53;;
11453;SDS011;5783;55.174;61.310;2023-04-15T10:46:44;20.10;;;9.93;;
11453;SDS011;5783;55.174;61.310;2023-04-15T10:49:16;15.33;;;9.67;;
11453;SDS011;5783;55.174;61.310;2023-04-15T11:03:13;14.80;;;10.60;;
11453;SDS011;5783;55.174;61.310;2023-04-15T11:17:26;22.87;;;10.70;;
11453;SDS011;5783;55.174;61.310;2023-04-15T11:19:57;15.03;;;7.33;;
11453;SDS011;5783;55.174;61.310;2023-04-15T11:22:29;10.53;;;6.03;;
11453;SDS011;5783;55.174;61.310;2023-04-15T11:24:59;15.33;;;5.60;;
11453;SDS011;5783;55.174;61.310;2023-04-15T11:27:30;13.80;;;4.80;;
11453;SDS011;5783;55.174;61.310;2023-04-15T11:30:01;12.10;;;4.00;;
11453;SDS011;5783;55.174;61.310;2023-04-15T11:32:32;10.67;;;3.90;;
11453;SDS011;5783;55.174;61.310;2023-04-15T11:35:03;5.03;;;3.63;;
11453;SDS011;5783;55.174;61.310;2023-04-15T11:37:33;5.70;;;3.33;;
11453;SDS011;5783;55.174;61.310;2023-04-15T11:40:04;7.37;;;3.73;;
11453;SDS011;5783;55.174;61.310;2023-04-15T11:42:38;7.93;;;3.63;;
11453;SDS011;5783;55.174;61.310;2023-04-15T11:56:29;10.00;;;4.03;;
11453;SDS011;5783;55.174;61.310;2023-04-15T11:58:58;7.70;;;3.93;;
11453;SDS011;5783;55.174;61.310;2023-04-15T12:04:18;10.77;;;4.70;;
11453;SDS011;5783;55.174;61.310;2023-04-15T12:06:48;6.57;;;3.80;;
11453;SDS011;5783;55.174;61.310;2023-04-15T12:09:18;7.83;;;4.00;;
11453;SDS011;5783;55.174;61.310;2023-04-15T12:11:48;6.77;;;3.73;;
11453;SDS011;5783;55.174;61.310;2023-04-15T12:17:09;8.47;;;3.87;;
11453;SDS011;5783;55.174;61.310;2023-04-15T12:19:39;8.63;;;4.00;;
11453;SDS011;5783;55.174;61.310;2023-04-15T12:22:29;7.00;;;3.97;;
11453;SDS011;5783;55.174;61.310;2023-04-15T12:25:00;6.70;;;4.17;;
11453;SDS011;5783;55.174;61.310;2023-04-15T12:27:30;7.03;;;3.87;;
11453;SDS011;5783;55.174;61.310;2023-04-15T12:32:50;7.40;;;3.90;;
11453;SDS011;5783;55.174;61.310;2023-04-15T12:35:20;7.53;;;3.67;;
11453;SDS011;5783;55.174;61.310;2023-04-15T12:37:49;8.47;;;4.27;;
11453;SDS011;5783;55.174;61.310;2023-04-15T12:40:19;9.40;;;4.20;;
11453;SDS011;5783;55.174;61.310;2023-04-15T12:42:48;9.13;;;4.50;;
11453;SDS011;5783;55.174;61.310;2023-04-15T12:45:18;6.47;;;4.23;;
11453;SDS011;5783;55.174;61.310;2023-04-15T12:47:47;6.00;;;4.03;;
11453;SDS011;5783;55.174;61.310;2023-04-15T12:50:16;7.67;;;4.27;;
11453;SDS011;5783;55.174;61.310;2023-04-15T12:52:45;7.03;;;3.80;;
11453;SDS011;5783;55.174;61.310;2023-04-15T12:55:14;10.03;;;5.10;;
11453;SDS011;5783;55.174;61.310;2023-04-15T12:57:44;7.97;;;4.13;;
11453;SDS011;5783;55.174;61.310;2023-04-15T13:00:13;5.93;;;3.63;;
11453;SDS011;5783;55.174;61.310;2023-04-15T13:02:43;5.07;;;3.60;;
11453;SDS011;5783;55.174;61.310;2023-04-15T13:05:12;8.43;;;4.03;;
11453;SDS011;5783;55.174;61.310;2023-04-15T13:07:42;5.87;;;3.60;;
11453;SDS011;5783;55.174;61.310;2023-04-15T13:10:11;4.83;;;3.00;;
11453;SDS011;5783;55.174;61.310;2023-04-15T13:12:41;3.83;;;2.97;;
11453;SDS011;5783;55.174;61.310;2023-04-15T13:15:11;5.27;;;3.27;;
11453;SDS011;5783;55.174;61.310;2023-04-15T13:17:42;6.67;;;2.90;;
11453;SDS011;5783;55.174;61.310;2023-04-15T13:20:11;6.67;;;2.93;;
11453;SDS011;5783;55.174;61.310;2023-04-15T13:22:40;9.97;;;3.97;;
11453;SDS011;5783;55.174;61.310;2023-04-15T13:25:11;7.77;;;3.60;;
11453;SDS011;5783;55.174;61.310;2023-04-15T13:27:40;6.50;;;3.40;;
11453;SDS011;5783;55.174;61.310;2023-04-15T13:30:09;4.40;;;2.57;;
11453;SDS011;5783;55.174;61.310;2023-04-15T13:32:39;5.03;;;3.03;;
11453;SDS011;5783;55.174;61.310;2023-04-15T13:35:08;7.40;;;2.97;;
11453;SDS011;5783;55.174;61.310;2023-04-15T13:37:37;3.93;;;2.70;;
11453;SDS011;5783;55.174;61.310;2023-04-15T13:40:07;8.30;;;3.57;;
11453;SDS011;5783;55.174;61.310;2023-04-15T13:45:12;7.83;;;3.00;;
11453;SDS011;5783;55.174;61.310;2023-04-15T13:47:41;9.90;;;3.20;;
11453;SDS011;5783;55.174;61.310;2023-04-15T13:50:10;5.17;;;2.67;;
11453;SDS011;5783;55.174;61.310;2023-04-15T13:52:39;5.27;;;2.60;;
11453;SDS011;5783;55.174;61.310;2023-04-15T13:55:08;5.50;;;2.67;;
11453;SDS011;5783;55.174;61.310;2023-04-15T13:57:38;4.43;;;2.47;;
11453;SDS011;5783;55.174;61.310;2023-04-15T14:00:07;4.13;;;2.30;;
11453;SDS011;5783;55.174;61.310;2023-04-15T14:02:37;2.97;;;2.40;;
11453;SDS011;5783;55.174;61.310;2023-04-15T14:05:07;4.40;;;2.27;;
11453;SDS011;5783;55.174;61.310;2023-04-15T14:07:36;3.60;;;2.60;;
11453;SDS011;5783;55.174;61.310;2023-04-15T14:10:06;3.60;;;2.70;;
11453;SDS011;5783;55.174;61.310;2023-04-15T14:12:35;3.17;;;2.37;;
11453;SDS011;5783;55.174;61.310;2023-04-15T14:15:05;3.30;;;1.83;;
11453;SDS011;5783;55.174;61.310;2023-04-15T14:17:34;4.07;;;2.20;;
11453;SDS011;5783;55.174;61.310;2023-04-15T14:20:05;2.60;;;2.10;;
11453;SDS011;5783;55.174;61.310;2023-04-15T14:22:34;3.10;;;1.83;;
11453;SDS011;5783;55.174;61.310;2023-04-15T14:25:05;3.53;;;2.17;;
11453;SDS011;5783;55.174;61.310;2023-04-15T14:27:35;3.93;;;2.40;;
11453;SDS011;5783;55.174;61.310;2023-04-15T14:30:04;3.13;;;2.20;;
11453;SDS011;5783;55.174;61.310;2023-04-15T14:32:35;2.53;;;1.80;;
11453;SDS011;5783;55.174;61.310;2023-04-15T14:35:04;3.07;;;2.00;;
11453;SDS011;5783;55.174;61.310;2023-04-15T14:37:33;2.57;;;2.00;;
11453;SDS011;5783;55.174;61.310;2023-04-15T14:40:03;2.73;;;2.07;;
11453;SDS011;5783;55.174;61.310;2023-04-15T14:42:32;3.93;;;2.17;;
11453;SDS011;5783;55.174;61.310;2023-04-15T14:45:01;3.03;;;2.23;;
11453;SDS011;5783;55.174;61.310;2023-04-15T14:47:31;4.70;;;2.13;;
11453;SDS011;5783;55.174;61.310;2023-04-15T14:50:01;4.43;;;1.80;;
11453;SDS011;5783;55.174;61.310;2023-04-15T14:52:31;3.30;;;2.10;;
11453;SDS011;5783;55.174;61.310;2023-04-15T14:55:02;3.13;;;2.17;;
11453;SDS011;5783;55.174;61.310;2023-04-15T14:57:32;3.27;;;2.30;;
11453;SDS011;5783;55.174;61.310;2023-04-15T15:02:34;3.10;;;2.00;;
11453;SDS011;5783;55.174;61.310;2023-04-15T15:05:04;4.33;;;1.80;;
11453;SDS011;5783;55.174;61.310;2023-04-15T15:07:33;2.93;;;1.80;;
11453;SDS011;5783;55.174;61.310;2023-04-15T15:10:04;2.50;;;1.80;;
11453;SDS011;5783;55.174;61.310;2023-04-15T15:12:34;3.50;;;1.90;;
11453;SDS011;5783;55.174;61.310;2023-04-15T15:15:03;2.63;;;1.87;;
11453;SDS011;5783;55.174;61.310;2023-04-15T15:17:34;4.00;;;1.90;;
11453;SDS011;5783;55.174;61.310;2023-04-15T15:20:04;2.30;;;1.80;;
11453;SDS011;5783;55.174;61.310;2023-04-15T15:22:33;3.30;;;1.70;;
11453;SDS011;5783;55.174;61.310;2023-04-15T15:25:03;2.73;;;2.03;;
11453;SDS011;5783;55.174;61.310;2023-04-15T15:27:33;2.50;;;1.90;;
11453;SDS011;5783;55.174;61.310;2023-04-15T15:30:02;2.20;;;1.67;;
11453;SDS011;5783;55.174;61.310;2023-04-15T15:32:32;3.20;;;1.77;;
11453;SDS011;5783;55.174;61.310;2023-04-15T15:35:01;2.40;;;2.00;;
11453;SDS011;5783;55.174;61.310;2023-04-15T15:37:32;3.17;;;2.10;;
11453;SDS011;5783;55.174;61.310;2023-04-15T15:42:51;4.93;;;2.27;;
11453;SDS011;5783;55.174;61.310;2023-04-15T15:45:21;3.03;;;1.90;;
11453;SDS011;5783;55.174;61.310;2023-04-15T15:47:50;3.43;;;2.20;;
11453;SDS011;5783;55.174;61.310;2023-04-15T15:50:19;2.47;;;2.10;;
11453;SDS011;5783;55.174;61.310;2023-04-15T15:52:49;2.43;;;1.93;;
11453;SDS011;5783;55.174;61.310;2023-04-15T15:55:18;5.77;;;2.50;;
11453;SDS011;5783;55.174;61.310;2023-04-15T15:57:48;5.57;;;2.43;;
11453;SDS011;5783;55.174;61.310;2023-04-15T16:00:17;6.73;;;2.30;;
11453;SDS011;5783;55.174;61.310;2023-04-15T16:02:48;3.60;;;2.27;;
11453;SDS011;5783;55.174;61.310;2023-04-15T16:05:17;8.10;;;2.40;;
11453;SDS011;5783;55.174;61.310;2023-04-15T16:07:46;5.83;;;2.57;;
11453;SDS011;5783;55.174;61.310;2023-04-15T16:10:15;3.87;;;2.37;;
11453;SDS011;5783;55.174;61.310;2023-04-15T16:12:44;4.33;;;2.63;;